Time;durP1;ratioP1;P1;durP2;ratioP2;P2;SDS_P1;SDS_P2;PMS_P1;PMS_P2;Temp;Humidity;BMP_temperature;BMP_pressure;BME280_temperature;BME280_humidity;BME280_pressure;Samples;Min_cycle;Max_cycle;Signal;HPM_P1;HPM_P2
2022/01/09 00:00:30;;;;;;;;;;;;;;;-3.85;100.00;99093.98;1712735;83;20085;-69
2022/01/09 00:02:58;;;;;;;;;;;;;;;-3.85;100.00;99091.87;1712845;83;20432;-69
2022/01/09 00:05:25;;;;;;;;;;;;;;;-3.89;100.00;99087.47;1712702;83;20126;-68
2022/01/09 00:07:53;;;;;;;;;;;;;;;-3.90;100.00;99082.70;1712762;83;21173;-69
2022/01/09 00:10:20;;;;;;;;;;;;;;;-3.92;100.00;99088.64;1712713;83;20114;-68
2022/01/09 00:12:47;;;;;;;;;;;;;;;-3.93;100.00;99080.93;1712803;83;20085;-69
2022/01/09 00:15:14;;;;;;;;;;;;;;;-3.95;100.00;99072.41;1712886;83;20113;-68
2022/01/09 00:17:40;;;;;;;;;;;;;;;-3.96;100.00;99068.17;1713081;83;20178;-68
2022/01/09 00:20:08;;;;;;;;;;;;;;;-4.00;100.00;99070.80;1712787;83;21156;-70
2022/01/09 00:22:43;;;;;;;;;;;;;;;-4.00;100.00;99062.94;1713057;83;20109;-70
2022/01/09 00:25:07;;;;;;;;;;;;;;;-4.03;100.00;99061.98;1712142;83;20140;-69
2022/01/09 00:27:33;;;;;;;;;;;;;;;-4.06;100.00;99060.52;1713416;83;20102;-69
2022/01/09 00:30:00;;;;;;;;;;;;;;;-4.07;100.00;99048.88;1713026;83;20400;-69
2022/01/09 00:32:28;;;;;;;;;;;;;;;-4.09;100.00;99041.21;1713221;83;21853;-69
2022/01/09 00:34:54;;;;;;;;;;;;;;;-4.08;100.00;99045.95;1713013;83;20419;-69
2022/01/09 00:37:22;;;;;;;;;;;;;;;-4.07;100.00;99044.95;1712836;83;20097;-69
2022/01/09 00:39:49;;;;;;;;;;;;;;;-4.11;100.00;99038.75;1712874;83;20129;-69
2022/01/09 00:42:16;;;;;;;;;;;;;;;-4.10;100.00;99040.87;1713258;83;20118;-69
2022/01/09 00:44:42;;;;;;;;;;;;;;;-4.10;100.00;99038.25;1712611;83;21145;-69
2022/01/09 00:47:09;;;;;;;;;;;;;;;-4.11;100.00;99032.70;1712855;83;20189;-69
2022/01/09 00:49:35;;;;;;;;;;;;;;;-4.14;100.00;99026.00;1712731;83;20477;-69
2022/01/09 00:52:03;;;;;;;;;;;;;;;-4.14;100.00;99021.22;1712798;83;20561;-70
2022/01/09 00:54:30;;;;;;;;;;;;;;;-4.15;100.00;99011.24;1713011;83;20427;-70
2022/01/09 00:56:58;;;;;;;;;;;;;;;-4.14;100.00;99009.42;1713764;83;20098;-69
2022/01/09 00:59:26;;;;;;;;;;;;;;;-4.18;100.00;99008.97;1716623;83;20129;-70
2022/01/09 01:01:52;;;;;;;;;;;;;;;-4.19;100.00;99003.42;1715494;83;20432;-69
2022/01/09 01:04:19;;;;;;;;;;;;;;;-4.20;100.00;99001.77;1712726;84;20158;-69
2022/01/09 01:06:45;;;;;;;;;;;;;;;-4.20;100.00;99001.77;1712690;83;20120;-71
2022/01/09 01:09:12;;;;;;;;;;;;;;;-4.22;100.00;98989.83;1712909;83;21102;-70
2022/01/09 01:11:40;;;;;;;;;;;;;;;-4.25;100.00;98991.48;1712817;83;20118;-69
2022/01/09 01:14:09;;;;;;;;;;;;;;;-4.22;100.00;98984.59;1712869;83;20141;-69
2022/01/09 01:16:37;;;;;;;;;;;;;;;-4.23;100.00;98979.84;1713100;83;20089;-70
2022/01/09 01:19:05;;;;;;;;;;;;;;;-4.25;100.00;98973.95;1712863;83;20101;-70
2022/01/09 01:21:33;;;;;;;;;;;;;;;-4.26;100.00;98971.03;1712899;83;21204;-69
2022/01/09 01:24:00;;;;;;;;;;;;;;;-4.27;100.00;98964.14;1712787;83;20109;-70
2022/01/09 01:26:27;;;;;;;;;;;;;;;-4.27;100.00;98968.06;1712999;83;20131;-70
2022/01/09 01:28:54;;;;;;;;;;;;;;;-4.26;100.00;98954.47;1712833;83;20105;-71
2022/01/09 01:31:22;;;;;;;;;;;;;;;-4.27;100.00;98951.53;1713016;83;20081;-70
2022/01/09 01:33:48;;;;;;;;;;;;;;;-4.26;100.00;98951.38;1712983;83;21215;-70
2022/01/09 01:36:15;;;;;;;;;;;;;;;-4.25;100.00;98941.70;1713451;83;20431;-70
2022/01/09 01:38:42;;;;;;;;;;;;;;;-4.25;100.00;98941.70;1712915;83;20093;-70
2022/01/09 01:41:08;;;;;;;;;;;;;;;-4.27;100.00;98935.81;1713147;83;20493;-70
2022/01/09 01:43:35;;;;;;;;;;;;;;;-4.26;100.00;98934.81;1712913;83;20077;-71
2022/01/09 01:46:02;;;;;;;;;;;;;;;-4.25;100.00;98927.28;1713045;83;21103;-70
2022/01/09 01:48:29;;;;;;;;;;;;;;;-4.24;100.00;98928.91;1712841;83;20121;-70
2022/01/09 01:50:56;;;;;;;;;;;;;;;-4.25;100.00;98922.86;1712916;83;20173;-70
2022/01/09 01:53:23;;;;;;;;;;;;;;;-4.24;100.00;98922.35;1712946;83;20089;-70
2022/01/09 01:55:55;;;;;;;;;;;;;;;-4.25;100.00;98912.38;1721222;82;20107;-70
2022/01/09 01:58:22;;;;;;;;;;;;;;;-4.24;100.00;98907.44;1724714;82;21165;-70
2022/01/09 02:00:49;;;;;;;;;;;;;;;-4.24;100.00;98900.89;1716333;82;20074;-70
2022/01/09 02:03:15;;;;;;;;;;;;;;;-4.24;100.00;98902.70;1729523;82;20174;-70
2022/01/09 02:05:42;;;;;;;;;;;;;;;-4.27;100.00;98893.89;1729559;82;20623;-69
2022/01/09 02:08:09;;;;;;;;;;;;;;;-4.26;100.00;98888.48;1740785;82;20091;-69
2022/01/09 02:10:39;;;;;;;;;;;;;;;-4.25;100.00;98891.41;1742793;81;21833;-70
2022/01/09 02:13:06;;;;;;;;;;;;;;;-4.25;100.00;98885.36;1713909;82;20329;-70
2022/01/09 02:15:35;;;;;;;;;;;;;;;-4.24;100.00;98882.55;1712869;83;20114;-70
2022/01/09 02:18:05;;;;;;;;;;;;;;;-4.23;100.00;98867.66;1712891;83;20499;-71
2022/01/09 02:20:33;;;;;;;;;;;;;;;-4.26;100.00;98859.66;1712851;83;20105;-70
2022/01/09 02:23:00;;;;;;;;;;;;;;;-4.23;100.00;98862.42;1712765;83;21145;-69
2022/01/09 02:25:27;;;;;;;;;;;;;;;-4.22;100.00;98856.17;1742348;82;20107;-69
2022/01/09 02:27:54;;;;;;;;;;;;;;;-4.23;100.00;98844.08;1741608;82;20075;-69
2022/01/09 02:30:21;;;;;;;;;;;;;;;-4.24;100.00;98841.92;1742463;82;20099;-69
2022/01/09 02:32:47;;;;;;;;;;;;;;;-4.23;100.00;98838.34;1732298;81;20122;-69
2022/01/09 02:35:14;;;;;;;;;;;;;;;-4.24;100.00;98837.19;1712921;84;21145;-69
2022/01/09 02:37:40;;;;;;;;;;;;;;;-4.25;100.00;98842.93;1730203;81;20098;-69
2022/01/09 02:40:08;;;;;;;;;;;;;;;-4.22;100.00;98830.78;1727628;81;20097;-69
2022/01/09 02:42:35;;;;;;;;;;;;;;;-4.20;100.00;98829.30;1712918;83;20101;-69
2022/01/09 02:45:13;;;;;;;;;;;;;;;-4.21;100.00;98825.06;1684917;83;20471;-69
2022/01/09 02:47:39;;;;;;;;;;;;;;;-4.21;100.00;98828.49;1706396;83;20098;-70
2022/01/09 02:50:27;;;;;;;;;;;;;;;-4.22;100.00;98822.11;1697637;83;20442;-70
2022/01/09 02:52:48;;;;;;;;;;;;;;;-4.20;100.00;98828.80;1693044;83;20124;-69
2022/01/09 02:55:11;;;;;;;;;;;;;;;-4.20;100.00;98820.13;1693472;83;20499;-70
2022/01/09 02:57:43;;;;;;;;;;;;;;;-4.21;100.00;98807.53;1697744;83;20475;-70
2022/01/09 03:00:13;;;;;;;;;;;;;;;-4.20;100.00;98818.31;1708860;82;21142;-70
2022/01/09 03:02:39;;;;;;;;;;;;;;;-4.20;100.00;98807.84;1741644;82;20083;-69
2022/01/09 03:05:07;;;;;;;;;;;;;;;-4.19;100.00;98811.27;1722896;81;20479;-70
2022/01/09 03:07:34;;;;;;;;;;;;;;;-4.16;100.00;98810.94;1720971;82;20078;-70
2022/01/09 03:10:00;;;;;;;;;;;;;;;-4.17;100.00;98797.49;1723222;82;20126;-70
2022/01/09 03:12:27;;;;;;;;;;;;;;;-4.19;100.00;98797.69;1741083;82;21201;-71
2022/01/09 03:14:54;;;;;;;;;;;;;;;-4.17;100.00;98793.56;1729228;82;20424;-70
2022/01/09 03:17:20;;;;;;;;;;;;;;;-4.17;100.00;98788.32;1713012;83;20118;-69
2022/01/09 03:19:47;;;;;;;;;;;;;;;-4.17;100.00;98798.30;1712828;83;20488;-68
2022/01/09 03:22:13;;;;;;;;;;;;;;;-4.18;100.00;98787.52;1712974;84;20113;-69
2022/01/09 03:24:42;;;;;;;;;;;;;;;-4.18;100.00;98783.58;1712850;83;21871;-69
2022/01/09 03:27:11;;;;;;;;;;;;;;;-4.14;100.00;98786.65;1725737;82;20099;-70
2022/01/09 03:29:38;;;;;;;;;;;;;;;-4.14;100.00;98784.87;1738028;82;20448;-70
2022/01/09 03:32:06;;;;;;;;;;;;;;;-4.14;100.00;98780.09;1741680;82;20091;-69
2022/01/09 03:34:33;;;;;;;;;;;;;;;-4.16;100.00;98767.69;1741834;82;20111;-69
2022/01/09 03:37:01;;;;;;;;;;;;;;;-4.16;100.00;98773.73;1741992;82;20107;-69
2022/01/09 03:39:28;;;;;;;;;;;;;;;-4.16;100.00;98764.56;1741139;82;20095;-69
2022/01/09 03:41:58;;;;;;;;;;;;;;;-4.16;100.00;98767.19;1742513;81;20127;-69
2022/01/09 03:44:26;;;;;;;;;;;;;;;-4.14;100.00;98759.97;1741031;82;20111;-69
2022/01/09 03:46:53;;;;;;;;;;;;;;;-4.11;100.00;98758.80;1742655;82;20118;-69
2022/01/09 03:49:20;;;;;;;;;;;;;;;-4.11;100.00;98753.05;1738912;81;21840;-69
2022/01/09 03:51:50;;;;;;;;;;;;;;;-4.14;100.00;98748.17;1729950;82;20193;-69
2022/01/09 03:54:16;;;;;;;;;;;;;;;-4.13;100.00;98750.30;1742024;82;20114;-67
2022/01/09 03:56:43;;;;;;;;;;;;;;;-4.13;100.00;98742.42;1745086;82;20154;-69
2022/01/09 03:59:09;;;;;;;;;;;;;;;-4.13;100.00;98740.62;1744329;82;20401;-68
2022/01/09 04:01:35;;;;;;;;;;;;;;;-4.11;100.00;98731.27;1742492;82;21841;-69
2022/01/09 04:04:04;;;;;;;;;;;;;;;-4.11;100.00;98730.77;1724264;82;20117;-69
2022/01/09 04:06:32;;;;;;;;;;;;;;;-4.11;100.00;98723.41;1713043;84;20456;-69
2022/01/09 04:09:06;;;;;;;;;;;;;;;-4.13;100.00;98718.84;1714475;82;20562;-70
2022/01/09 04:11:35;;;;;;;;;;;;;;;-4.11;100.00;98714.23;1717731;81;20406;-70
2022/01/09 04:13:57;;;;;;;;;;;;;;;-4.13;100.00;98707.85;1741245;82;21106;-68
2022/01/09 04:16:25;;;;;;;;;;;;;;;-4.12;100.00;98713.91;1726661;82;20140;-70
2022/01/09 04:18:53;;;;;;;;;;;;;;;-4.11;100.00;98710.31;1722420;82;20086;-68
2022/01/09 04:21:20;;;;;;;;;;;;;;;-4.12;100.00;98708.16;1734462;82;20108;-69
2022/01/09 04:23:46;;;;;;;;;;;;;;;-4.10;100.00;98702.24;1717950;81;20154;-69
2022/01/09 04:26:13;;;;;;;;;;;;;;;-4.10;100.00;98710.11;1717429;82;21849;-68
2022/01/09 04:28:39;;;;;;;;;;;;;;;-4.11;100.00;98701.13;1740650;82;20246;-69
2022/01/09 04:31:06;;;;;;;;;;;;;;;-4.11;100.00;98693.27;1742794;82;20118;-71
2022/01/09 04:33:32;;;;;;;;;;;;;;;-4.10;100.00;98692.27;1741130;82;20160;-70
2022/01/09 04:35:59;;;;;;;;;;;;;;;-4.07;100.00;98695.02;1742941;82;20192;-68
2022/01/09 04:38:26;;;;;;;;;;;;;;;-4.07;100.00;98691.89;1736280;82;21820;-69
2022/01/09 04:40:53;;;;;;;;;;;;;;;-4.07;100.00;98692.40;1712899;83;20097;-69
2022/01/09 04:43:20;;;;;;;;;;;;;;;-4.06;100.00;98691.42;1712898;83;20455;-69
2022/01/09 04:45:46;;;;;;;;;;;;;;;-4.07;100.00;98691.89;1712704;83;20141;-68
2022/01/09 04:48:14;;;;;;;;;;;;;;;-4.07;100.00;98689.27;1712796;83;20435;-69
2022/01/09 04:50:43;;;;;;;;;;;;;;;-4.06;100.00;98690.92;1712639;83;21206;-68
2022/01/09 04:53:09;;;;;;;;;;;;;;;-4.07;100.00;98676.17;1712848;83;20118;-69
2022/01/09 04:55:39;;;;;;;;;;;;;;;-4.06;100.00;98670.45;1712542;83;20181;-69
2022/01/09 04:58:05;;;;;;;;;;;;;;;-4.06;100.00;98682.25;1712943;83;20101;-69
2022/01/09 05:00:32;;;;;;;;;;;;;;;-4.06;100.00;98670.45;1712592;83;20102;-68
2022/01/09 05:02:58;;;;;;;;;;;;;;;-4.06;100.00;98667.83;1715428;82;21796;-69
2022/01/09 05:05:24;;;;;;;;;;;;;;;-4.04;100.00;98671.06;1727446;81;20118;-69
2022/01/09 05:07:51;;;;;;;;;;;;;;;-4.05;100.00;98670.25;1712614;83;20077;-68
2022/01/09 05:10:17;;;;;;;;;;;;;;;-4.05;100.00;98671.56;1712752;83;20085;-69
2022/01/09 05:12:44;;;;;;;;;;;;;;;-4.05;100.00;98658.45;1712677;83;20137;-70
2022/01/09 05:15:13;;;;;;;;;;;;;;;-4.05;100.00;98658.45;1712565;83;21235;-69
2022/01/09 05:17:39;;;;;;;;;;;;;;;-4.06;100.00;98657.34;1712664;83;20098;-69
2022/01/09 05:20:09;;;;;;;;;;;;;;;-4.06;100.00;98662.59;1712845;82;20175;-70
2022/01/09 05:22:36;;;;;;;;;;;;;;;-4.07;100.00;98654.39;1722564;81;20427;-69
2022/01/09 05:25:06;;;;;;;;;;;;;;;-4.05;100.00;98664.20;1728459;82;20283;-69
2022/01/09 05:27:32;;;;;;;;;;;;;;;-4.05;100.00;98664.20;1713012;83;21134;-70
2022/01/09 05:29:58;;;;;;;;;;;;;;;-4.08;100.00;98655.41;1735168;82;20453;-69
2022/01/09 05:32:25;;;;;;;;;;;;;;;-4.10;100.00;98652.45;1742585;81;20116;-69
2022/01/09 05:34:51;;;;;;;;;;;;;;;-4.08;100.00;98660.64;1742216;81;20119;-69
2022/01/09 05:37:18;;;;;;;;;;;;;;;-4.10;100.00;98651.14;1742554;81;20087;-72
2022/01/09 05:39:44;;;;;;;;;;;;;;;-4.11;100.00;98645.59;1742243;81;21135;-71
2022/01/09 05:42:12;;;;;;;;;;;;;;;-4.10;100.00;98644.58;1719029;81;20098;-70
2022/01/09 05:44:39;;;;;;;;;;;;;;;-4.10;100.00;98639.84;1713145;83;20110;-72
2022/01/09 05:47:05;;;;;;;;;;;;;;;-4.11;100.00;98639.03;1712581;83;20460;-72
2022/01/09 05:49:33;;;;;;;;;;;;;;;-4.11;100.00;98646.90;1713063;83;20094;-69
2022/01/09 05:52:00;;;;;;;;;;;;;;;-4.11;100.00;98642.97;1712813;83;21804;-70
2022/01/09 05:54:27;;;;;;;;;;;;;;;-4.09;100.00;98637.55;1712762;83;20189;-70
2022/01/09 05:56:53;;;;;;;;;;;;;;;-4.10;100.00;98641.96;1722687;82;20101;-69
2022/01/09 05:59:20;;;;;;;;;;;;;;;-4.09;100.00;98634.94;1736511;81;20174;-69
2022/01/09 06:01:46;;;;;;;;;;;;;;;-4.09;100.00;98640.17;1713074;83;20458;-69
2022/01/09 06:04:13;;;;;;;;;;;;;;;-4.07;100.00;98633.42;1713056;83;21850;-69
2022/01/09 06:06:40;;;;;;;;;;;;;;;-4.08;100.00;98626.56;1712824;83;20287;-71
2022/01/09 06:09:08;;;;;;;;;;;;;;;-4.06;100.00;98639.80;1730411;82;20483;-68
2022/01/09 06:11:35;;;;;;;;;;;;;;;-4.06;100.00;98635.07;1742573;81;20083;-69
2022/01/09 06:14:02;;;;;;;;;;;;;;;-4.03;100.00;98638.13;1742586;81;21189;-69
2022/01/09 06:16:29;;;;;;;;;;;;;;;-3.99;100.00;98634.63;1734024;81;21141;-69
2022/01/09 06:18:56;;;;;;;;;;;;;;;-3.98;100.00;98646.25;1738923;82;20107;-69
2022/01/09 06:21:26;;;;;;;;;;;;;;;-3.98;100.00;98638.89;1748372;81;20144;-70
2022/01/09 06:23:53;;;;;;;;;;;;;;;-3.98;100.00;98635.77;1717328;82;20601;-68
2022/01/09 06:26:20;;;;;;;;;;;;;;;-3.97;100.00;98639.20;1721835;83;20123;-70
2022/01/09 06:28:46;;;;;;;;;;;;;;;-3.96;100.00;98633.78;1710606;83;21156;-68
2022/01/09 06:31:13;;;;;;;;;;;;;;;-3.96;100.00;98639.02;1721412;82;20165;-70
2022/01/09 06:33:40;;;;;;;;;;;;;;;-3.95;100.00;98628.84;1740322;82;20429;-71
2022/01/09 06:36:06;;;;;;;;;;;;;;;-3.93;100.00;98618.18;1740007;82;20529;-70
2022/01/09 06:38:33;;;;;;;;;;;;;;;-3.91;100.00;98625.38;1740009;81;20111;-71
2022/01/09 06:40:59;;;;;;;;;;;;;;;-3.90;100.00;98619.12;1740087;82;21840;-70
2022/01/09 06:43:28;;;;;;;;;;;;;;;-3.93;100.00;98606.38;1728433;82;20149;-68
2022/01/09 06:45:54;;;;;;;;;;;;;;;-3.91;100.00;98612.27;1710492;84;20097;-71
2022/01/09 06:48:20;;;;;;;;;;;;;;;-3.89;100.00;98607.65;1710246;82;20493;-70
2022/01/09 06:50:46;;;;;;;;;;;;;;;-3.86;100.00;98610.41;1712701;83;20166;-69
2022/01/09 06:53:14;;;;;;;;;;;;;;;-3.88;100.00;98606.64;1714150;83;21160;-68
2022/01/09 06:55:41;;;;;;;;;;;;;;;-3.87;100.00;98601.73;1710461;84;20666;-71
2022/01/09 06:58:10;;;;;;;;;;;;;;;-3.86;100.00;98603.84;1710567;83;20097;-69
2022/01/09 07:00:37;;;;;;;;;;;;;;;-3.84;100.00;98601.86;1718051;82;20517;-71
2022/01/09 07:03:07;;;;;;;;;;;;;;;-3.81;100.00;98602.29;1739577;82;20146;-67
2022/01/09 07:05:35;;;;;;;;;;;;;;;-3.77;100.00;98594.85;1739524;81;21153;-67
2022/01/09 07:08:04;;;;;;;;;;;;;;;-3.78;100.00;98586.18;1739517;82;20100;-67
2022/01/09 07:10:33;;;;;;;;;;;;;;;-3.72;100.00;98593.83;1726067;82;20145;-69
2022/01/09 07:13:01;;;;;;;;;;;;;;;-3.71;100.00;98588.88;1740019;82;20087;-69
2022/01/09 07:15:28;;;;;;;;;;;;;;;-3.72;100.00;98584.64;1739773;82;20099;-70
2022/01/09 07:17:55;;;;;;;;;;;;;;;-3.69;100.00;98582.95;1739715;82;21151;-70
2022/01/09 07:20:21;;;;;;;;;;;;;;;-3.67;100.00;98580.46;1723243;82;20443;-71
2022/01/09 07:22:47;;;;;;;;;;;;;;;-3.66;100.00;98571.58;1714290;82;20188;-71
2022/01/09 07:25:14;;;;;;;;;;;;;;;-3.58;100.00;98575.09;1714464;82;20085;-71
2022/01/09 07:27:40;;;;;;;;;;;;;;;-3.57;100.00;98576.73;1717285;82;20139;-70
2022/01/09 07:30:10;;;;;;;;;;;;;;;-3.58;100.00;98568.02;1724092;82;21897;-71
2022/01/09 07:32:37;;;;;;;;;;;;;;;-3.54;100.00;98567.16;1716211;81;20091;-73
2022/01/09 07:35:05;;;;;;;;;;;;;;;-3.49;100.00;98568.22;1734567;82;20425;-70
2022/01/09 07:37:33;;;;;;;;;;;;;;;-3.48;100.00;98567.72;1739627;82;20205;-70
2022/01/09 07:40:03;;;;;;;;;;;;;;;-3.45;100.00;98571.30;1739565;81;20154;-70
2022/01/09 07:42:31;;;;;;;;;;;;;;;-3.39;100.00;98569.73;1739592;81;21250;-71
2022/01/09 07:45:00;;;;;;;;;;;;;;;-3.40;100.00;98563.67;1739469;82;20123;-70
2022/01/09 07:47:27;;;;;;;;;;;;;;;-3.39;100.00;98573.66;1739933;81;20161;-70
2022/01/09 07:49:54;;;;;;;;;;;;;;;-3.35;100.00;98570.98;1739729;82;20533;-68
2022/01/09 07:52:21;;;;;;;;;;;;;;;-3.32;100.00;98560.11;1726157;82;20436;-72
2022/01/09 07:54:47;;;;;;;;;;;;;;;-3.30;100.00;98554.17;1718363;82;21583;-70
2022/01/09 07:57:17;;;;;;;;;;;;;;;-3.27;100.00;98553.28;1722155;82;20435;-67
2022/01/09 07:59:44;;;;;;;;;;;;;;;-3.22;100.00;98555.84;1714958;82;20176;-67
2022/01/09 08:02:11;;;;;;;;;;;;;;;-3.18;100.00;98553.97;1718738;82;20078;-69
2022/01/09 08:04:39;;;;;;;;;;;;;;;-3.17;100.00;98545.59;1720062;82;20180;-67
2022/01/09 08:07:12;;;;;;;;;;;;;;;-3.15;100.00;98543.59;1720723;82;21116;-66
2022/01/09 08:09:41;;;;;;;;;;;;;;;-3.12;100.00;98544.01;1721566;82;20141;-70
2022/01/09 08:12:14;;;;;;;;;;;;;;;-3.05;100.00;98540.13;1716316;83;20237;-69
2022/01/09 08:14:42;;;;;;;;;;;;;;;-3.09;100.00;98537.56;1716129;82;20529;-69
2022/01/09 08:17:08;;;;;;;;;;;;;;;-3.08;100.00;98540.02;1717940;83;20601;-69
2022/01/09 08:19:36;;;;;;;;;;;;;;;-3.05;100.00;98540.13;1717783;82;21089;-69
2022/01/09 08:22:03;;;;;;;;;;;;;;;-3.03;100.00;98532.88;1720453;82;20166;-68
2022/01/09 08:24:33;;;;;;;;;;;;;;;-2.96;100.00;98529.80;1720515;81;20161;-69
2022/01/09 08:26:59;;;;;;;;;;;;;;;-2.91;100.00;98532.66;1718468;82;20170;-68
2022/01/09 08:29:27;;;;;;;;;;;;;;;-2.82;100.00;98523.64;1723298;82;21005;-71
2022/01/09 08:31:55;;;;;;;;;;;;;;;-2.87;100.00;98518.63;1719494;82;21548;-68
2022/01/09 08:34:30;;;;;;;;;;;;;;;-2.89;100.00;98521.95;1716574;83;20089;-71
2022/01/09 08:36:57;;;;;;;;;;;;;;;-2.92;100.00;98520.52;1715811;82;20150;-71
2022/01/09 08:39:29;;;;;;;;;;;;;;;-2.87;100.00;98523.88;1717000;83;20504;-71
2022/01/09 08:41:56;;;;;;;;;;;;;;;-2.84;100.00;98519.08;1718026;81;20161;-66
2022/01/09 08:44:24;;;;;;;;;;;;;;;-2.83;100.00;98518.05;1718116;81;20792;-70
2022/01/09 08:46:51;;;;;;;;;;;;;;;-2.77;100.00;98504.65;1715419;81;20548;-70
2022/01/09 08:49:18;;;;;;;;;;;;;;;-2.73;100.00;98506.41;1720937;82;20531;-74
2022/01/09 08:51:44;;;;;;;;;;;;;;;-2.70;100.00;98506.00;1718980;81;20169;-66
2022/01/09 08:54:13;;;;;;;;;;;;;;;-2.65;100.00;98507.55;1709186;82;20129;-70
2022/01/09 08:56:41;;;;;;;;;;;;;;;-2.65;100.00;98507.04;1714528;82;21184;-67
2022/01/09 08:59:07;;;;;;;;;;;;;;;-2.63;100.00;98497.66;1719087;82;20168;-69
2022/01/09 09:01:34;;;;;;;;;;;;;;;-2.67;100.00;98499.87;1716759;82;20486;-69
2022/01/09 09:04:00;;;;;;;;;;;;;;;-2.68;100.00;98497.44;1719128;82;20490;-68
2022/01/09 09:06:30;;;;;;;;;;;;;;;-2.71;100.00;98504.40;1715745;81;20643;-71
2022/01/09 09:08:57;;;;;;;;;;;;;;;-2.71;100.00;98500.45;1709654;81;21193;-71
2022/01/09 09:11:24;;;;;;;;;;;;;;;-2.68;100.00;98489.55;1726744;81;20179;-68
2022/01/09 09:13:50;;;;;;;;;;;;;;;-2.66;100.00;98493.61;1748543;81;20146;-67
2022/01/09 09:16:17;;;;;;;;;;;;;;;-2.61;100.00;98491.72;1709689;83;20133;-70
2022/01/09 09:18:47;;;;;;;;;;;;;;;-2.60;100.00;98494.64;1709132;83;20118;-70
2022/01/09 09:21:16;;;;;;;;;;;;;;;-2.59;100.00;98491.83;1709179;83;20101;-69
2022/01/09 09:23:43;;;;;;;;;;;;;;;-2.60;100.00;98484.13;1709347;84;20145;-71
2022/01/09 09:26:10;;;;;;;;;;;;;;;-2.56;100.00;98478.80;1727809;81;20432;-70
2022/01/09 09:28:37;;;;;;;;;;;;;;;-2.54;100.00;98479.93;1730012;82;20440;-71
2022/01/09 09:31:05;;;;;;;;;;;;;;;-2.49;100.00;98471.76;1736796;81;21003;-72
2022/01/09 09:33:32;;;;;;;;;;;;;;;-2.46;100.00;98466.11;1708929;84;21140;-71
2022/01/09 09:36:01;;;;;;;;;;;;;;;-2.42;100.00;98463.91;1709834;82;20113;-69
2022/01/09 09:38:30;;;;;;;;;;;;;;;-2.42;100.00;98464.72;1718613;82;20129;-68
2022/01/09 09:40:57;;;;;;;;;;;;;;;-2.44;100.00;98458.84;1709762;83;20465;-69
2022/01/09 09:43:41;;;;;;;;;;;;;;;-2.49;100.00;98450.73;1710038;81;20609;-71
2022/01/09 09:46:08;;;;;;;;;;;;;;;-2.35;100.00;98459.97;1745067;82;20432;-69
2022/01/09 09:48:35;;;;;;;;;;;;;;;-2.23;100.00;98453.97;1719121;82;20098;-70
2022/01/09 09:51:05;;;;;;;;;;;;;;;-2.22;100.00;98453.45;1738893;82;20417;-71
2022/01/09 09:53:31;;;;;;;;;;;;;;;-2.21;100.00;98459.01;1728062;82;20510;-70
2022/01/09 09:55:58;;;;;;;;;;;;;;;-2.16;100.00;98450.02;1703784;81;20079;-68
2022/01/09 09:58:27;;;;;;;;;;;;;;;-2.07;100.00;98448.03;1692322;82;21153;-70
2022/01/09 10:00:54;;;;;;;;;;;;;;;-1.99;100.00;98447.83;1720642;82;20453;-69
2022/01/09 10:03:30;;;;;;;;;;;;;;;-1.99;100.00;98438.63;1739124;82;20083;-67
2022/01/09 10:05:58;;;;;;;;;;;;;;;-2.02;100.00;98441.66;1739017;81;20138;-70
2022/01/09 10:08:37;;;;;;;;;;;;;;;-2.10;100.00;98436.61;1731715;81;20087;-70
2022/01/09 10:11:17;;;;;;;;;;;;;;;-2.12;100.00;98443.36;1724006;82;21131;-70
2022/01/09 10:13:45;;;;;;;;;;;;;;;-2.06;100.00;98433.34;1723918;81;20146;-70
2022/01/09 10:16:13;;;;;;;;;;;;;;;-1.93;100.00;98427.33;1738365;82;20114;-70
2022/01/09 10:18:47;;;;;;;;;;;;;;;-1.85;100.00;98435.52;1724394;83;20143;-67
2022/01/09 10:21:16;;;;;;;;;;;;;;;-1.82;100.00;98431.17;1724591;83;20075;-71
2022/01/09 10:24:02;;;;;;;;;;;;;;;-1.68;100.00;98426.73;1724574;81;21876;-70
2022/01/09 10:26:30;;;;;;;;;;;;;;;-1.61;100.00;98430.17;1740429;81;20453;-71
2022/01/09 10:28:57;;;;;;;;;;;;;;;-1.53;100.00;98430.77;1724488;83;20115;-70
2022/01/09 10:31:24;;;;;;;;;;;;;;;-1.40;100.00;98427.83;1724106;83;20218;-69
2022/01/09 10:34:05;;;;;;;;;;;;;;;-1.26;100.00;98420.73;1720164;81;20460;-70
2022/01/09 10:37:00;;;;;;;;;;;;;;;-1.31;100.00;98422.14;1730867;81;21183;-71
2022/01/09 10:39:36;;;;;;;;;;;;;;;-1.37;100.00;98420.83;1675714;84;20448;-70
2022/01/09 10:42:03;;;;;;;;;;;;;;;-1.46;100.00;98413.66;1746310;82;20162;-68
2022/01/09 10:44:34;;;;;;;;;;;;;;;-1.48;100.00;98412.25;1748274;82;20167;-68
2022/01/09 10:47:12;;;;;;;;;;;;;;;-1.53;100.00;98405.77;1747492;82;20182;-69
2022/01/09 10:49:49;;;;;;;;;;;;;;;-1.53;100.00;98395.75;1747371;82;21161;-69
2022/01/09 10:52:19;;;;;;;;;;;;;;;-1.54;100.00;98398.89;1750280;81;20095;-68
2022/01/09 10:54:50;;;;;;;;;;;;;;;-1.56;100.00;98394.34;1750407;82;20503;-70
2022/01/09 10:57:25;;;;;;;;;;;;;;;-1.52;100.00;98396.04;1750264;82;20137;-70
2022/01/09 10:59:52;;;;;;;;;;;;;;;-1.43;100.00;98395.34;1749554;82;20130;-68
2022/01/09 11:02:19;;;;;;;;;;;;;;;-1.40;100.00;98394.92;1748810;82;21138;-70
2022/01/09 11:04:47;;;;;;;;;;;;;;;-1.29;100.00;98389.04;1715004;82;20120;-69
2022/01/09 11:07:14;;;;;;;;;;;;;;;-1.25;100.00;98386.31;1713180;83;20156;-67
2022/01/09 11:09:45;;;;;;;;;;;;;;;-1.28;100.00;98388.02;1710739;84;20113;-68
2022/01/09 11:12:16;;;;;;;;;;;;;;;-1.21;100.00;98375.64;1712711;83;20470;-65
2022/01/09 11:14:40;;;;;;;;;;;;;;;-1.17;100.00;98374.74;1705558;83;21346;-67
2022/01/09 11:17:11;;;;;;;;;;;;;;;-1.27;100.00;98383.06;1693301;83;20093;-68
2022/01/09 11:19:39;;;;;;;;;;;;;;;-1.33;100.00;98375.46;1711083;83;20138;-70
2022/01/09 11:22:07;;;;;;;;;;;;;;;-1.30;100.00;98365.86;1710906;83;20114;-69
2022/01/09 11:25:14;;;;;;;;;;;;;;;-1.28;100.00;98367.47;1710591;82;20162;-69
2022/01/09 11:27:44;;;;;;;;;;;;;;;-1.32;100.00;98362.63;1710790;84;21134;-69
2022/01/09 11:30:35;;;;;;;;;;;;;;;-1.35;100.00;98355.14;1710719;82;20170;-69
2022/01/09 11:33:29;;;;;;;;;;;;;;;-1.35;100.00;98353.83;1709897;82;20510;-69
2022/01/09 11:36:21;;;;;;;;;;;;;;;-1.30;100.00;98353.18;1680617;84;20125;-66
2022/01/09 11:39:14;;;;;;;;;;;;;;;-1.36;100.00;98361.41;1677840;85;20177;-68
2022/01/09 11:41:42;;;;;;;;;;;;;;;-1.36;100.00;98348.76;1712017;83;21159;-70
2022/01/09 11:44:10;;;;;;;;;;;;;;;-1.47;100.00;98344.11;1712614;82;20490;-69
2022/01/09 11:46:58;;;;;;;;;;;;;;;-1.56;100.00;98348.80;1713402;83;20140;-69
2022/01/09 11:49:26;;;;;;;;;;;;;;;-1.63;100.00;98342.22;1713622;83;20442;-70
2022/01/09 11:51:58;;;;;;;;;;;;;;;-1.65;100.00;98341.61;1713860;83;20163;-68
2022/01/09 11:54:27;;;;;;;;;;;;;;;-1.63;100.00;98341.42;1713770;83;20101;-70
2022/01/09 11:57:00;;;;;;;;;;;;;;;-1.63;100.00;98343.53;1713344;83;20153;-68
2022/01/09 11:59:39;;;;;;;;;;;;;;;-1.55;100.00;98343.83;1713015;83;20113;-69
2022/01/09 12:02:18;;;;;;;;;;;;;;;-1.54;100.00;98343.63;1714208;83;20596;-69
2022/01/09 12:04:49;;;;;;;;;;;;;;;-1.53;100.00;98342.61;1713789;82;20471;-68
2022/01/09 12:07:23;;;;;;;;;;;;;;;-1.51;100.00;98335.31;1711011;83;21150;-69
2022/01/09 12:09:51;;;;;;;;;;;;;;;-1.46;100.00;98333.39;1679138;83;20337;-68
2022/01/09 12:12:22;;;;;;;;;;;;;;;-1.46;100.00;98339.16;1667033;85;20117;-68
2022/01/09 12:17:26;;;;;;;;;;;;;;;-1.44;100.00;98330.05;1696640;84;20210;-68
2022/01/09 12:20:07;;;;;;;;;;;;;;;-1.38;100.00;98335.79;1697143;84;21187;-68
2022/01/09 12:22:45;;;;;;;;;;;;;;;-1.33;100.00;98333.34;1696965;84;20174;-70
2022/01/09 12:25:34;;;;;;;;;;;;;;;-1.32;100.00;98332.34;1696997;84;20164;-69
2022/01/09 12:28:24;;;;;;;;;;;;;;;-1.39;100.00;98331.55;1696160;84;20158;-69
2022/01/09 12:30:56;;;;;;;;;;;;;;;-1.45;100.00;98334.99;1697265;84;20174;-68
2022/01/09 12:33:31;;;;;;;;;;;;;;;-1.52;100.00;98328.94;1697260;84;21351;-69
2022/01/09 12:36:04;;;;;;;;;;;;;;;-1.55;100.00;98323.58;1697349;84;20484;-69
2022/01/09 12:38:35;;;;;;;;;;;;;;;-1.58;100.00;98331.89;1697109;84;20165;-69
2022/01/09 12:41:13;;;;;;;;;;;;;;;-1.57;100.00;98340.10;1697288;84;20480;-69
2022/01/09 12:43:41;;;;;;;;;;;;;;;-1.54;100.00;98327.84;1705133;83;20172;-68
2022/01/09 12:46:13;;;;;;;;;;;;;;;-1.55;100.00;98329.35;1682877;84;21143;-68